Time;durP1;ratioP1;P1;durP2;ratioP2;P2;SDS_P1;SDS_P2;PMS_P1;PMS_P2;Temp;Humidity;BMP_temperature;BMP_pressure;BME280_temperature;BME280_humidity;BME280_pressure;Samples;Min_cycle;Max_cycle;Signal;HPM_P1;HPM_P2
2022/09/21 05:33:44;;;;;;;;;;;;;;;13.95;52.34;97322.00;4223195;27;10374;-67
2022/09/21 05:35:59;;;;;;;;;;;;;;;14.26;52.25;97319.56;4199374;28;5781;-68
2022/09/21 05:38:08;;;;;;;;;;;;;;;14.52;51.54;97323.31;4204044;28;5658;-67
2022/09/21 05:40:13;;;;;;;;;;;;;;;14.64;51.57;97316.34;4206283;28;5620;-67
2022/09/21 05:42:17;;;;;;;;;;;;;;;14.81;51.22;97319.38;4195057;28;5790;-68
2022/09/21 05:44:21;;;;;;;;;;;;;;;14.90;50.95;97315.47;4212520;28;5101;-68
2022/09/21 05:46:37;;;;;;;;;;;;;;;14.99;50.71;97319.56;4212379;28;5718;-68
2022/09/21 05:48:48;;;;;;;;;;;;;;;15.07;50.72;97318.53;4213503;28;5640;-69
2022/09/21 05:50:59;;;;;;;;;;;;;;;15.17;50.39;97312.75;4208816;28;5639;-68
2022/09/21 05:53:19;;;;;;;;;;;;;;;15.26;50.50;97320.31;4212529;28;5616;-69
2022/09/21 05:55:44;;;;;;;;;;;;;;;15.33;50.36;97312.31;4214499;28;5804;-68
2022/09/21 05:57:55;;;;;;;;;;;;;;;15.40;50.48;97321.06;4214082;28;5762;-68
2022/09/21 06:00:08;;;;;;;;;;;;;;;15.42;50.16;97314.53;4214205;28;5654;-68
2022/09/21 06:02:23;;;;;;;;;;;;;;;15.48;50.09;97320.84;4213619;28;5772;-69
2022/09/21 06:04:28;;;;;;;;;;;;;;;15.52;50.17;97315.94;4212956;28;5635;-69
2022/09/21 06:06:32;;;;;;;;;;;;;;;15.53;50.17;97328.22;4195302;28;5675;-69
2022/09/21 06:08:36;;;;;;;;;;;;;;;15.51;50.16;97320.41;4213627;28;5690;-69
2022/09/21 06:10:39;;;;;;;;;;;;;;;15.48;50.13;97325.34;4213837;28;5722;-68
2022/09/21 06:12:43;;;;;;;;;;;;;;;15.46;50.17;97320.25;4213387;28;5703;-69
2022/09/21 06:14:46;;;;;;;;;;;;;;;15.48;50.06;97326.19;4213902;28;5766;-68
2022/09/21 06:16:49;;;;;;;;;;;;;;;15.49;50.12;97325.16;4213536;28;5714;-69
2022/09/21 06:18:53;;;;;;;;;;;;;;;15.57;49.76;97327.56;4213668;28;5730;-68
2022/09/21 06:20:57;;;;;;;;;;;;;;;15.63;49.76;97325.97;4195671;28;5678;-69
2022/09/21 06:23:01;;;;;;;;;;;;;;;15.64;49.53;97333.75;4213283;28;5625;-69
2022/09/21 06:25:05;;;;;;;;;;;;;;;15.63;49.87;97332.09;4195909;28;7867;-69
2022/09/21 06:27:10;;;;;;;;;;;;;;;15.64;49.85;97336.41;4213421;28;5223;-69
2022/09/21 06:29:13;;;;;;;;;;;;;;;15.64;49.90;97333.75;4212977;28;5631;-69
2022/09/21 06:31:21;;;;;;;;;;;;;;;15.66;49.73;97336.19;4213996;28;5632;-69
2022/09/21 06:33:27;;;;;;;;;;;;;;;15.64;49.58;97333.75;4197133;28;5647;-69
2022/09/21 06:35:32;;;;;;;;;;;;;;;15.68;49.48;97332.28;4202422;28;5635;-69
2022/09/21 06:37:38;;;;;;;;;;;;;;;15.70;49.64;97335.53;4202404;28;5707;-69
2022/09/21 06:39:42;;;;;;;;;;;;;;;15.70;49.40;97332.88;4202593;28;5623;-69
2022/09/21 06:41:45;;;;;;;;;;;;;;;15.65;49.39;97331.91;4202484;28;5687;-69
2022/09/21 06:43:53;;;;;;;;;;;;;;;15.61;49.59;97331.47;4184430;28;5773;-69
2022/09/21 06:45:58;;;;;;;;;;;;;;;15.62;49.23;97330.44;4202498;28;5631;-68
2022/09/21 06:48:02;;;;;;;;;;;;;;;15.66;49.27;97326.34;4202342;28;5698;-69
2022/09/21 06:50:07;;;;;;;;;;;;;;;15.72;49.19;97330.81;4201945;28;5651;-69
2022/09/21 06:52:13;;;;;;;;;;;;;;;15.73;49.21;97328.97;4201833;28;5721;-69
2022/09/21 06:54:18;;;;;;;;;;;;;;;15.70;49.01;97330.22;4201750;28;5655;-69
2022/09/21 06:56:22;;;;;;;;;;;;;;;15.72;49.15;97325.47;4202101;28;5767;-69
2022/09/21 06:58:25;;;;;;;;;;;;;;;15.78;49.28;97334.50;4202101;28;5635;-69
2022/09/21 07:00:32;;;;;;;;;;;;;;;15.83;48.83;97333.84;4201973;28;5624;-70
2022/09/21 07:02:35;;;;;;;;;;;;;;;15.85;49.13;97326.44;4202055;28;5631;-69
2022/09/21 07:04:39;;;;;;;;;;;;;;;15.90;48.98;97331.97;4190772;28;5738;-68
2022/09/21 07:06:42;;;;;;;;;;;;;;;15.93;48.94;97326.19;4195714;28;6377;-69
2022/09/21 07:08:46;;;;;;;;;;;;;;;15.95;48.98;97332.13;4168228;28;5709;-69
2022/09/21 07:11:15;;;;;;;;;;;;;;;15.97;48.94;97328.25;4199334;28;5644;-69
2022/09/21 07:13:18;;;;;;;;;;;;;;;16.00;48.59;97332.31;4201455;28;5783;-67
2022/09/21 07:15:22;;;;;;;;;;;;;;;15.99;48.63;97336.03;4200453;28;5651;-69
2022/09/21 07:17:31;;;;;;;;;;;;;;;16.04;48.85;97332.69;4201495;28;5675;-69
2022/09/21 07:19:35;;;;;;;;;;;;;;;16.02;48.83;97325.75;4200191;28;5680;-69
2022/09/21 07:21:39;;;;;;;;;;;;;;;16.08;48.72;97332.03;4193208;28;5683;-69
2022/09/21 07:23:44;;;;;;;;;;;;;;;16.10;48.51;97318.53;4199245;28;5668;-69
2022/09/21 07:25:49;;;;;;;;;;;;;;;16.11;48.72;97330.81;4201730;28;6068;-70
2022/09/21 07:27:54;;;;;;;;;;;;;;;16.16;48.65;97323.78;4199728;28;5624;-69
2022/09/21 07:29:58;;;;;;;;;;;;;;;16.19;48.85;97326.03;4185171;28;5642;-69
2022/09/21 07:32:02;;;;;;;;;;;;;;;16.23;48.55;97326.44;4189852;28;5837;-69
2022/09/21 07:34:06;;;;;;;;;;;;;;;16.22;48.47;97330.94;4193114;28;5635;-69
2022/09/21 07:36:11;;;;;;;;;;;;;;;16.24;48.37;97330.72;4191110;28;5646;-68
2022/09/21 07:38:17;;;;;;;;;;;;;;;16.26;48.41;97326.81;4184517;28;5643;-68
2022/09/21 07:40:22;;;;;;;;;;;;;;;16.29;48.49;97326.38;4193139;28;5660;-68
2022/09/21 07:42:29;;;;;;;;;;;;;;;16.36;48.50;97337.00;4199100;28;5752;-69
2022/09/21 07:44:34;;;;;;;;;;;;;;;16.40;48.31;97332.03;4201044;28;5635;-69
2022/09/21 07:46:37;;;;;;;;;;;;;;;16.44;48.36;97333.25;4200532;28;5767;-69
2022/09/21 07:48:53;;;;;;;;;;;;;;;16.49;48.24;97339.56;4200271;28;5706;-69
2022/09/21 07:51:03;;;;;;;;;;;;;;;16.50;48.25;97335.88;4183551;28;5714;-68
2022/09/21 07:53:06;;;;;;;;;;;;;;;16.52;47.74;97341.81;4200744;28;5786;-69
2022/09/21 07:55:10;;;;;;;;;;;;;;;16.52;47.89;97335.66;4196865;28;5726;-68
2022/09/21 07:59:37;;;;;;;;;;;;;;;16.45;48.03;97335.72;4188176;28;6511;-69
2022/09/21 08:01:41;;;;;;;;;;;;;;;16.51;48.12;97339.34;4196723;28;5800;-69
2022/09/21 08:03:45;;;;;;;;;;;;;;;16.51;48.09;97345.50;4187201;28;5748;-69
2022/09/21 08:05:49;;;;;;;;;;;;;;;16.45;47.93;97341.06;4185572;28;5852;-69
2022/09/21 08:07:55;;;;;;;;;;;;;;;16.46;47.94;97347.22;4194290;28;5667;-69
2022/09/21 08:09:59;;;;;;;;;;;;;;;16.37;47.88;97341.31;4190745;28;5842;-69
2022/09/21 08:12:03;;;;;;;;;;;;;;;16.35;47.79;97343.38;4190674;28;5646;-68
2022/09/21 08:14:06;;;;;;;;;;;;;;;16.32;48.08;97340.34;4188421;28;5711;-68
2022/09/21 08:16:12;;;;;;;;;;;;;;;16.32;48.16;97345.66;4198905;28;5730;-69
2022/09/21 08:18:16;;;;;;;;;;;;;;;16.33;48.02;97336.63;4200559;28;5698;-68
2022/09/21 08:20:22;;;;;;;;;;;;;;;16.33;47.82;97331.28;4200609;28;5667;-68
2022/09/21 08:22:25;;;;;;;;;;;;;;;16.38;47.91;97339.44;4182810;28;5764;-69
2022/09/21 08:24:30;;;;;;;;;;;;;;;16.49;47.89;97341.44;4200277;28;5710;-69
2022/09/21 08:26:33;;;;;;;;;;;;;;;16.49;47.75;97331.56;4200667;28;5774;-68
2022/09/21 08:28:37;;;;;;;;;;;;;;;16.57;47.61;97344.66;4182461;28;5822;-69
2022/09/21 08:30:41;;;;;;;;;;;;;;;16.47;47.62;97332.81;4200473;28;5824;-67
2022/09/21 08:32:46;;;;;;;;;;;;;;;16.47;47.86;97330.97;4198306;28;5944;-77
2022/09/21 08:34:53;;;;;;;;;;;;;;;16.56;47.45;97340.34;4200453;28;7691;-74
2022/09/21 08:36:56;;;;;;;;;;;;;;;16.58;47.35;97332.13;4200870;28;5631;-75
2022/09/21 08:39:01;;;;;;;;;;;;;;;16.58;47.46;97337.47;4169958;28;5757;-74
2022/09/21 08:41:15;;;;;;;;;;;;;;;16.59;47.48;97334.56;4184010;28;5651;-74
2022/09/21 08:43:29;;;;;;;;;;;;;;;16.59;47.36;97331.91;4184164;28;5737;-74
2022/09/21 08:45:38;;;;;;;;;;;;;;;16.68;47.17;97343.16;4183751;28;5755;-72
2022/09/21 08:47:44;;;;;;;;;;;;;;;16.75;47.27;97335.88;4186011;28;5755;-71
2022/09/21 08:49:53;;;;;;;;;;;;;;;16.80;47.32;97327.25;4200363;28;5687;-72
2022/09/21 08:52:00;;;;;;;;;;;;;;;16.84;47.07;97331.91;4200197;28;5751;-72
2022/09/21 08:54:10;;;;;;;;;;;;;;;16.88;47.18;97326.97;4199912;28;5640;-71
2022/09/21 08:56:15;;;;;;;;;;;;;;;16.87;46.86;97328.81;4200226;28;5640;-71
2022/09/21 08:58:23;;;;;;;;;;;;;;;16.91;47.11;97331.88;4200361;28;5631;-71
2022/09/21 09:00:29;;;;;;;;;;;;;;;16.92;47.23;97335.34;4200394;28;5755;-77
2022/09/21 09:02:43;;;;;;;;;;;;;;;16.99;46.87;97331.59;4181875;28;5654;-77
2022/09/21 09:04:58;;;;;;;;;;;;;;;17.05;46.82;97336.03;4200962;28;5803;-77
2022/09/21 09:07:16;;;;;;;;;;;;;;;17.13;46.90;97326.91;4201808;28;5628;-78
2022/09/21 09:09:43;;;;;;;;;;;;;;;17.09;46.59;97325.72;4201664;28;5805;-79
2022/09/21 09:12:00;;;;;;;;;;;;;;;17.07;46.64;97322.44;4200302;28;5807;-76
2022/09/21 09:14:25;;;;;;;;;;;;;;;17.10;46.52;97322.84;4200406;28;5634;-78
2022/09/21 09:16:36;;;;;;;;;;;;;;;17.10;46.58;97317.50;4200829;28;5108;-78
2022/09/21 09:18:45;;;;;;;;;;;;;;;17.17;46.67;97320.09;4200682;28;5730;-77
2022/09/21 09:20:57;;;;;;;;;;;;;;;17.27;46.36;97312.38;4200283;28;5736;-77
2022/09/21 09:23:11;;;;;;;;;;;;;;;17.32;46.26;97319.72;4199753;28;5714;-76
2022/09/21 09:25:20;;;;;;;;;;;;;;;17.31;46.20;97312.72;4197561;28;5619;-69
2022/09/21 09:27:30;;;;;;;;;;;;;;;17.32;46.31;97309.03;4193067;28;5734;-69
2022/09/21 09:29:44;;;;;;;;;;;;;;;17.37;46.18;97309.19;4197151;28;5781;-69
2022/09/21 09:31:48;;;;;;;;;;;;;;;17.37;46.38;97309.19;4198463;28;5667;-70
2022/09/21 09:34:00;;;;;;;;;;;;;;;17.38;46.24;97308.13;4196784;28;5777;-69
2022/09/21 09:36:07;;;;;;;;;;;;;;;17.40;46.23;97316.75;4173795;28;5808;-69
2022/09/21 09:38:19;;;;;;;;;;;;;;;17.48;46.18;97312.97;4185518;28;5770;-69
2022/09/21 09:40:53;;;;;;;;;;;;;;;17.48;46.17;97304.94;4189630;28;5678;-69
2022/09/21 09:43:02;;;;;;;;;;;;;;;17.54;46.10;97307.53;4181208;28;5858;-69
2022/09/21 09:45:38;;;;;;;;;;;;;;;17.57;45.87;97301.75;4185237;28;5675;-69
2022/09/21 09:47:57;;;;;;;;;;;;;;;17.59;45.82;97298.84;4180477;28;5102;-69
2022/09/21 09:50:06;;;;;;;;;;;;;;;17.62;45.78;97301.88;4188046;28;5758;-70
2022/09/21 09:52:13;;;;;;;;;;;;;;;17.63;45.77;97300.00;4164273;28;5712;-69
2022/09/21 09:54:29;;;;;;;;;;;;;;;17.70;45.68;97292.75;4184664;28;5782;-65
2022/09/21 09:56:33;;;;;;;;;;;;;;;17.74;45.75;97291.25;4181245;28;7279;-68
2022/09/21 09:58:42;;;;;;;;;;;;;;;17.80;45.52;97286.88;4189682;28;5670;-68
2022/09/21 10:00:47;;;;;;;;;;;;;;;17.83;45.54;97286.41;4189728;28;5636;-69
2022/09/21 10:02:52;;;;;;;;;;;;;;;17.81;45.49;97292.00;4188565;28;5639;-66
2022/09/21 10:05:04;;;;;;;;;;;;;;;17.82;45.58;97274.91;4186718;28;5801;-68
2022/09/21 10:07:19;;;;;;;;;;;;;;;17.83;45.25;97281.88;4190170;28;5742;-68
2022/09/21 10:09:27;;;;;;;;;;;;;;;17.81;45.32;97273.28;4187622;28;5717;-70
2022/09/21 10:11:38;;;;;;;;;;;;;;;17.87;45.44;97261.66;4194318;28;5636;-69
2022/09/21 10:13:43;;;;;;;;;;;;;;;17.90;45.37;97268.44;4200313;28;5635;-69
2022/09/21 10:15:50;;;;;;;;;;;;;;;17.92;45.16;97261.00;4199019;28;5639;-69
2022/09/21 10:18:01;;;;;;;;;;;;;;;17.94;45.15;97265.06;4193640;28;5632;-69
2022/09/21 10:20:08;;;;;;;;;;;;;;;17.96;44.97;97262.97;4191240;28;5845;-69
2022/09/21 10:22:17;;;;;;;;;;;;;;;17.99;45.18;97270.53;4189287;28;5644;-69
2022/09/21 10:24:24;;;;;;;;;;;;;;;18.01;45.00;97265.78;4182910;28;5808;-69
2022/09/21 10:26:32;;;;;;;;;;;;;;;18.03;44.93;97263.69;4190799;28;5665;-69
2022/09/21 10:28:37;;;;;;;;;;;;;;;18.04;44.91;97259.97;4185798;28;5635;-68
2022/09/21 10:30:40;;;;;;;;;;;;;;;18.08;44.76;97267.53;4194362;28;5723;-71
2022/09/21 10:32:55;;;;;;;;;;;;;;;18.10;44.75;97260.91;4194816;28;5803;-68
2022/09/21 10:35:14;;;;;;;;;;;;;;;18.11;44.44;97257.19;4199273;28;5632;-68
2022/09/21 10:37:27;;;;;;;;;;;;;;;18.17;44.72;97252.78;4188399;28;5177;-70
2022/09/21 10:39:32;;;;;;;;;;;;;;;18.20;44.52;97252.31;4195550;28;5627;-70
2022/09/21 10:41:37;;;;;;;;;;;;;;;18.26;44.44;97257.56;4190680;28;5639;-71
2022/09/21 10:43:43;;;;;;;;;;;;;;;18.26;44.36;97254.91;4192276;28;5742;-71
2022/09/21 10:45:54;;;;;;;;;;;;;;;18.25;44.29;97244.44;4194383;28;5774;-76
2022/09/21 10:48:07;;;;;;;;;;;;;;;18.28;44.38;97246.63;4200295;28;5707;-69
2022/09/21 10:50:24;;;;;;;;;;;;;;;18.29;44.33;97251.75;4176397;28;5758;-71
2022/09/21 10:52:34;;;;;;;;;;;;;;;18.35;44.27;97250.03;4186192;28;5650;-72
2022/09/21 10:54:41;;;;;;;;;;;;;;;18.38;44.01;97254.91;4185105;28;5655;-70
2022/09/21 10:56:55;;;;;;;;;;;;;;;18.40;44.17;97249.31;4189084;28;5761;-72
2022/09/21 10:59:13;;;;;;;;;;;;;;;18.43;44.00;97238.97;4193156;28;5658;-71
2022/09/21 11:01:23;;;;;;;;;;;;;;;18.45;43.93;97236.84;4178426;28;6432;-69
2022/09/21 11:03:44;;;;;;;;;;;;;;;18.48;43.74;97249.81;4194421;28;5686;-73
2022/09/21 11:05:50;;;;;;;;;;;;;;;18.48;43.99;97244.44;4190458;28;5647;-70
2022/09/21 11:07:58;;;;;;;;;;;;;;;18.51;44.04;97249.34;4185291;28;5658;-70
2022/09/21 11:10:12;;;;;;;;;;;;;;;18.50;44.26;97247.69;4190573;28;5643;-69
2022/09/21 11:12:30;;;;;;;;;;;;;;;18.49;44.37;97245.25;4190950;28;5655;-68
2022/09/21 11:14:45;;;;;;;;;;;;;;;18.51;44.44;97243.16;4186245;28;5144;-68
2022/09/21 11:16:55;;;;;;;;;;;;;;;18.52;44.40;97242.94;4173169;28;6076;-69
2022/09/21 11:19:06;;;;;;;;;;;;;;;18.51;44.56;97238.63;4192733;28;5644;-70
2022/09/21 11:21:16;;;;;;;;;;;;;;;18.52;44.63;97240.25;4195870;28;5667;-71
2022/09/21 11:23:39;;;;;;;;;;;;;;;18.54;44.66;97232.78;4194368;28;5802;-74
2022/09/21 11:25:49;;;;;;;;;;;;;;;18.58;44.67;97228.63;4191598;28;5631;-70
2022/09/21 11:28:00;;;;;;;;;;;;;;;18.60;44.65;97229.19;4199309;28;5636;-74
2022/09/21 11:30:07;;;;;;;;;;;;;;;18.61;44.92;97233.50;4188656;28;5643;-72
2022/09/21 11:32:31;;;;;;;;;;;;;;;18.63;44.88;97230.59;4187969;28;5826;-78
2022/09/21 11:34:59;;;;;;;;;;;;;;;18.55;45.02;97214.88;4196226;28;6628;-73
2022/09/21 11:37:13;;;;;;;;;;;;;;;18.66;45.08;97223.97;4196098;28;5635;-75
2022/09/21 11:39:26;;;;;;;;;;;;;;;18.63;45.16;97225.22;4194121;28;5667;-75
2022/09/21 11:41:49;;;;;;;;;;;;;;;18.63;45.19;97223.38;4187125;28;5858;-78
2022/09/21 11:44:18;;;;;;;;;;;;;;;18.64;45.31;97216.19;4192562;28;5624;-74
2022/09/21 11:46:30;;;;;;;;;;;;;;;18.67;45.34;97220.25;4186144;28;5727;-74
2022/09/21 11:48:55;;;;;;;;;;;;;;;18.70;45.40;97219.81;4191584;28;5635;-75
2022/09/21 11:51:13;;;;;;;;;;;;;;;18.70;45.35;97215.25;4194263;28;5778;-74
2022/09/21 11:53:34;;;;;;;;;;;;;;;18.74;45.61;97220.94;4176021;28;5677;-75
2022/09/21 11:55:54;;;;;;;;;;;;;;;18.70;45.54;97217.94;4192743;28;5618;-81
2022/09/21 11:58:09;;;;;;;;;;;;;;;18.69;45.56;97213.63;4191021;28;5762;-78
2022/09/21 12:00:16;;;;;;;;;;;;;;;18.72;45.57;97217.69;4190320;28;5938;-80
2022/09/21 12:02:36;;;;;;;;;;;;;;;18.74;45.60;97208.38;4172685;28;5949;-73
2022/09/21 12:04:48;;;;;;;;;;;;;;;18.76;45.60;97213.50;4189854;28;5095;-74
2022/09/21 12:07:07;;;;;;;;;;;;;;;18.73;45.55;97208.63;4187275;28;5741;-74
2022/09/21 12:09:34;;;;;;;;;;;;;;;18.71;45.66;97211.53;4193603;28;5751;-74
2022/09/21 12:11:43;;;;;;;;;;;;;;;18.71;45.72;97210.72;4171362;28;6543;-73
2022/09/21 12:13:57;;;;;;;;;;;;;;;18.70;45.80;97203.72;4192654;28;5726;-82
2022/09/21 12:16:10;;;;;;;;;;;;;;;18.72;45.75;97205.13;4178294;28;5943;-78
2022/09/21 12:18:21;;;;;;;;;;;;;;;18.76;45.54;97208.94;4197461;28;5730;-75
2022/09/21 12:20:37;;;;;;;;;;;;;;;18.72;45.74;97201.63;4180945;28;5674;-75
2022/09/21 12:22:45;;;;;;;;;;;;;;;18.73;45.66;97203.25;4198610;28;5880;-77
2022/09/21 12:24:52;;;;;;;;;;;;;;;18.73;45.81;97198.72;4188743;28;5650;-73
2022/09/21 12:26:59;;;;;;;;;;;;;;;18.78;45.74;97198.00;4188559;28;5813;-83
2022/09/21 12:29:12;;;;;;;;;;;;;;;18.78;45.81;97203.34;4195457;28;5643;-82
2022/09/21 12:31:23;;;;;;;;;;;;;;;18.74;45.82;97199.53;4195001;28;5636;-68
2022/09/21 12:33:35;;;;;;;;;;;;;;;18.79;45.61;97196.94;4190165;28;6598;-68
2022/09/21 12:35:43;;;;;;;;;;;;;;;18.81;45.73;97206.41;4193483;28;5616;-68
2022/09/21 12:37:57;;;;;;;;;;;;;;;18.79;45.59;97194.25;4197264;28;5699;-67
2022/09/21 12:40:06;;;;;;;;;;;;;;;18.81;45.64;97195.69;4191636;28;5639;-68
2022/09/21 12:42:23;;;;;;;;;;;;;;;18.79;45.61;97196.94;4194372;28;5751;-68
2022/09/21 12:44:50;;;;;;;;;;;;;;;18.82;45.67;97193.81;4193471;28;5639;-68
2022/09/21 12:47:08;;;;;;;;;;;;;;;18.84;45.50;97189.03;4191128;28;5843;-69
2022/09/21 12:49:18;;;;;;;;;;;;;;;18.85;45.66;97190.66;4194361;28;5660;-69
2022/09/21 12:51:29;;;;;;;;;;;;;;;18.86;45.54;97193.09;4200233;28;5794;-69
2022/09/21 12:53:36;;;;;;;;;;;;;;;18.87;45.69;97184.00;4189048;28;5620;-68
2022/09/21 12:55:46;;;;;;;;;;;;;;;18.89;45.52;97181.91;4196026;28;5722;-69
2022/09/21 12:57:58;;;;;;;;;;;;;;;18.93;45.78;97190.31;4188289;28;5944;-70
2022/09/21 13:00:21;;;;;;;;;;;;;;;18.94;45.36;97183.06;4186737;28;5654;-68
2022/09/21 13:02:33;;;;;;;;;;;;;;;18.96;45.68;97184.47;4197569;28;5849;-76
2022/09/21 13:04:48;;;;;;;;;;;;;;;18.97;45.57;97182.59;4195292;28;5639;-75
2022/09/21 13:07:28;;;;;;;;;;;;;;;18.94;45.57;97178.53;4182344;28;5654;-75
2022/09/21 13:09:34;;;;;;;;;;;;;;;19.02;45.44;97186.19;4191158;28;5107;-75
2022/09/21 13:11:52;;;;;;;;;;;;;;;19.04;45.56;97183.28;4190930;28;5099;-76
2022/09/21 13:13:59;;;;;;;;;;;;;;;19.05;45.43;97177.69;4190282;28;5624;-77
2022/09/21 13:16:06;;;;;;;;;;;;;;;19.13;45.26;97189.88;4200486;28;5623;-77
2022/09/21 13:18:20;;;;;;;;;;;;;;;19.13;45.33;97177.28;4200088;28;6489;-75
2022/09/21 13:20:24;;;;;;;;;;;;;;;19.14;45.35;97181.63;4181764;28;5666;-76
2022/09/21 13:22:32;;;;;;;;;;;;;;;19.17;45.39;97183.81;4176106;28;5801;-75
2022/09/21 13:24:35;;;;;;;;;;;;;;;19.19;45.29;97181.72;4180674;28;5898;-77
2022/09/21 13:26:40;;;;;;;;;;;;;;;19.23;45.43;97181.22;4193116;28;5648;-77
2022/09/21 13:29:25;;;;;;;;;;;;;;;19.27;45.19;97177.03;4190646;28;5726;-75
2022/09/21 13:31:58;;;;;;;;;;;;;;;19.27;45.27;97187.75;4194303;28;6128;-70
2022/09/21 13:34:21;;;;;;;;;;;;;;;19.32;45.13;97185.97;4192523;28;5620;-69
2022/09/21 13:36:33;;;;;;;;;;;;;;;19.32;45.13;97185.16;4190034;28;5746;-70
2022/09/21 13:39:03;;;;;;;;;;;;;;;19.34;45.11;97193.78;4186646;28;5748;-70
2022/09/21 13:41:25;;;;;;;;;;;;;;;19.36;45.11;97192.47;4196160;28;5746;-72
2022/09/21 13:44:01;;;;;;;;;;;;;;;19.38;45.11;97197.63;4191160;28;5664;-71
2022/09/21 13:46:07;;;;;;;;;;;;;;;19.39;44.83;97194.69;4202976;28;5752;-73
2022/09/21 13:48:26;;;;;;;;;;;;;;;19.41;45.00;97194.47;4181512;28;5813;-72
2022/09/21 13:50:38;;;;;;;;;;;;;;;19.41;44.98;97194.47;4202905;28;5719;-71
2022/09/21 13:52:46;;;;;;;;;;;;;;;19.41;44.77;97183.72;4204354;28;5635;-76
2022/09/21 13:54:52;;;;;;;;;;;;;;;19.43;44.87;97193.16;4192168;28;5113;-73
2022/09/21 13:57:08;;;;;;;;;;;;;;;19.44;44.80;97193.97;4194747;28;5895;-72
2022/09/21 13:59:21;;;;;;;;;;;;;;;19.45;44.87;97184.88;4201895;28;5139;-72
2022/09/21 14:01:31;;;;;;;;;;;;;;;19.46;44.67;97194.53;4198123;28;5725;-72
2022/09/21 14:03:56;;;;;;;;;;;;;;;19.47;44.50;97199.66;4196810;28;7588;-71
2022/09/21 14:06:05;;;;;;;;;;;;;;;19.44;44.66;97194.78;4196373;28;5698;-68
2022/09/21 14:08:22;;;;;;;;;;;;;;;19.47;44.48;97182.75;4186579;28;5643;-71
2022/09/21 14:10:26;;;;;;;;;;;;;;;19.50;44.48;97179.63;4198704;28;5635;-69
2022/09/21 14:12:38;;;;;;;;;;;;;;;19.51;44.42;97181.25;4191739;28;5710;-74
2022/09/21 14:14:41;;;;;;;;;;;;;;;19.49;44.37;97175.31;4182791;28;5763;-73
2022/09/21 14:16:56;;;;;;;;;;;;;;;19.57;44.23;97182.97;4199667;28;5703;-72
2022/09/21 14:19:02;;;;;;;;;;;;;;;19.56;44.09;97186.72;4201912;28;5725;-73
2022/09/21 14:21:18;;;;;;;;;;;;;;;19.55;43.99;97195.81;4199428;28;5841;-73
2022/09/21 14:23:28;;;;;;;;;;;;;;;19.55;44.04;97200.34;4189123;28;5687;-82
2022/09/21 14:25:52;;;;;;;;;;;;;;;19.53;43.80;97197.91;4198315;28;6843;-70
2022/09/21 14:27:59;;;;;;;;;;;;;;;19.56;43.88;97170.63;4195287;28;6433;-71
2022/09/21 14:30:07;;;;;;;;;;;;;;;19.58;43.45;97165.84;4202713;28;5068;-72
2022/09/21 14:32:16;;;;;;;;;;;;;;;19.65;43.48;97179.91;4188274;28;5721;-73
2022/09/21 14:34:25;;;;;;;;;;;;;;;19.69;43.27;97178.38;4202522;28;5726;-79
2022/09/21 14:36:36;;;;;;;;;;;;;;;19.74;43.24;97183.03;4199782;28;5649;-77
2022/09/21 14:38:48;;;;;;;;;;;;;;;19.80;42.90;97191.97;4192965;28;5687;-69
2022/09/21 14:40:59;;;;;;;;;;;;;;;19.83;42.79;97203.03;4180229;28;5652;-69
2022/09/21 14:43:08;;;;;;;;;;;;;;;19.86;43.05;97204.41;4201846;28;5636;-65
2022/09/21 14:45:17;;;;;;;;;;;;;;;19.87;42.87;97198.81;4195578;28;5807;-75
2022/09/21 14:47:50;;;;;;;;;;;;;;;19.88;42.83;97203.13;4197562;28;5655;-66
2022/09/21 14:50:04;;;;;;;;;;;;;;;19.87;42.53;97211.41;4179733;28;5687;-66
2022/09/21 14:52:22;;;;;;;;;;;;;;;19.82;42.54;97200.56;4190652;28;5942;-66
2022/09/21 14:54:41;;;;;;;;;;;;;;;19.81;42.50;97210.50;4192231;28;5747;-66
2022/09/21 14:56:59;;;;;;;;;;;;;;;19.81;42.26;97196.28;4189838;28;5638;-66
2022/09/21 14:59:19;;;;;;;;;;;;;;;19.82;42.09;97205.94;4194764;28;5714;-66
2022/09/21 15:01:36;;;;;;;;;;;;;;;19.81;41.97;97205.13;4197078;28;5666;-67
2022/09/21 15:04:02;;;;;;;;;;;;;;;19.82;41.64;97201.41;4168468;28;5864;-66
2022/09/21 15:11:20;;;;;;;;;;;;;;;19.80;41.40;97208.06;4188816;28;5650;-66
2022/09/21 15:13:57;;;;;;;;;;;;;;;19.78;41.13;97201.06;4184988;28;5878;-66
2022/09/21 15:16:16;;;;;;;;;;;;;;;19.80;41.17;97200.00;4183780;28;7855;-66
2022/09/21 15:18:21;;;;;;;;;;;;;;;19.79;41.22;97204.56;4192810;28;5750;-66
2022/09/21 15:20:26;;;;;;;;;;;;;;;19.80;41.13;97208.06;4170346;28;5677;-66
2022/09/21 15:22:31;;;;;;;;;;;;;;;19.76;40.58;97211.22;4178192;28;5891;-66
2022/09/21 15:24:34;;;;;;;;;;;;;;;19.72;40.74;97210.09;4190053;28;5696;-66
2022/09/21 15:26:39;;;;;;;;;;;;;;;19.69;40.76;97210.56;4169451;28;5661;-67
2022/09/21 15:28:47;;;;;;;;;;;;;;;19.65;40.59;97211.28;4196517;28;5715;-71
2022/09/21 15:31:11;;;;;;;;;;;;;;;19.64;40.70;97210.47;4201540;28;5722;-71
2022/09/21 15:33:15;;;;;;;;;;;;;;;19.65;40.64;97206.75;4196461;28;5627;-70
2022/09/21 15:35:20;;;;;;;;;;;;;;;19.60;40.39;97203.16;4200546;28;5719;-73
2022/09/21 15:37:24;;;;;;;;;;;;;;;19.55;40.57;97206.56;4167313;28;5661;-74
2022/09/21 15:39:31;;;;;;;;;;;;;;;19.57;40.30;97214.34;4184115;28;5658;-71
2022/09/21 15:41:39;;;;;;;;;;;;;;;19.54;40.42;97209.44;4186149;28;5662;-69
2022/09/21 15:43:46;;;;;;;;;;;;;;;19.54;40.46;97209.44;4200548;28;5691;-69
2022/09/21 15:45:54;;;;;;;;;;;;;;;19.53;40.13;97221.22;4171723;28;5780;-67
2022/09/21 15:47:59;;;;;;;;;;;;;;;19.47;40.38;97212.25;4200809;28;5775;-68
2022/09/21 15:50:02;;;;;;;;;;;;;;;19.46;40.36;97213.31;4200965;28;5764;-67
2022/09/21 15:52:11;;;;;;;;;;;;;;;19.44;40.08;97224.28;4187846;28;5662;-67
2022/09/21 15:54:25;;;;;;;;;;;;;;;19.44;39.84;97223.47;4197861;28;5635;-71
2022/09/21 15:56:30;;;;;;;;;;;;;;;19.43;39.98;97219.97;4198515;28;5635;-70
2022/09/21 15:58:36;;;;;;;;;;;;;;;19.38;39.82;97221.75;4184455;28;5658;-70
2022/09/21 16:00:40;;;;;;;;;;;;;;;19.37;39.94;97222.81;4195549;28;5726;-70
2022/09/21 16:02:51;;;;;;;;;;;;;;;19.36;39.91;97223.84;4198167;28;5691;-71
2022/09/21 16:04:55;;;;;;;;;;;;;;;19.33;39.73;97225.13;4198844;28;5659;-69
2022/09/21 16:07:03;;;;;;;;;;;;;;;19.34;39.76;97231.31;4199060;28;5726;-70
2022/09/21 16:09:32;;;;;;;;;;;;;;;19.34;39.61;97239.34;4165427;28;5746;-68
2022/09/21 16:11:38;;;;;;;;;;;;;;;19.32;39.67;97233.41;4196477;28;5647;-66
2022/09/21 16:16:04;;;;;;;;;;;;;;;19.24;39.54;97233.78;4197850;28;6595;-66
2022/09/21 16:18:31;;;;;;;;;;;;;;;19.20;39.57;97236.13;4184835;28;5774;-66
2022/09/21 16:20:44;;;;;;;;;;;;;;;19.21;39.72;97243.13;4173660;28;5650;-67
2022/09/21 16:22:49;;;;;;;;;;;;;;;19.21;39.59;97240.44;4187521;28;5833;-65
2022/09/21 16:24:55;;;;;;;;;;;;;;;19.22;39.61;97246.59;4181976;28;5737;-65
2022/09/21 16:27:02;;;;;;;;;;;;;;;19.17;39.46;97242.78;4192070;28;5735;-66
2022/09/21 16:29:22;;;;;;;;;;;;;;;19.17;39.43;97240.09;4185762;28;5631;-65
2022/09/21 16:31:34;;;;;;;;;;;;;;;19.16;39.50;97243.84;4189987;28;5824;-65
2022/09/21 16:33:41;;;;;;;;;;;;;;;19.17;39.52;97248.16;4181089;28;5535;-65
2022/09/21 16:35:45;;;;;;;;;;;;;;;19.18;39.42;97248.97;4183089;28;7791;-65
2022/09/21 16:37:49;;;;;;;;;;;;;;;19.16;39.47;97249.19;4190797;28;5667;-66
2022/09/21 16:39:52;;;;;;;;;;;;;;;19.17;39.37;97253.50;4181882;28;5704;-66
2022/09/21 16:41:58;;;;;;;;;;;;;;;19.17;39.26;97248.16;4183469;28;6536;-66
2022/09/21 16:44:03;;;;;;;;;;;;;;;19.13;39.35;97263.06;4192609;28;5758;-66
2022/09/21 16:46:07;;;;;;;;;;;;;;;19.09;39.24;97253.84;4198466;28;5639;-66
2022/09/21 16:48:12;;;;;;;;;;;;;;;19.07;39.34;97255.97;4198289;28;5755;-66
2022/09/21 16:50:17;;;;;;;;;;;;;;;19.04;39.33;97261.00;4189214;28;5719;-66
2022/09/21 16:52:21;;;;;;;;;;;;;;;19.03;39.54;97262.84;4182247;28;5728;-66
2022/09/21 16:54:26;;;;;;;;;;;;;;;19.00;39.34;97262.50;4185913;28;5631;-65
2022/09/21 16:56:30;;;;;;;;;;;;;;;18.98;39.28;97260.06;4193829;28;5643;-66
2022/09/21 16:58:33;;;;;;;;;;;;;;;18.97;39.34;97263.78;4189845;28;5647;-66
2022/09/21 17:00:41;;;;;;;;;;;;;;;18.97;39.38;97258.44;4191535;28;5627;-67
2022/09/21 17:02:44;;;;;;;;;;;;;;;18.97;39.36;97263.78;4194410;28;5640;-65
2022/09/21 17:04:47;;;;;;;;;;;;;;;18.95;39.26;97263.22;4190823;28;5759;-66
2022/09/21 17:06:51;;;;;;;;;;;;;;;18.94;39.37;97263.44;4193988;28;6523;-65
2022/09/21 17:08:54;;;;;;;;;;;;;;;18.92;39.34;97268.22;4185716;28;5460;-65
2022/09/21 17:10:58;;;;;;;;;;;;;;;18.93;39.33;97269.84;4186354;28;7827;-65